Time;durP1;ratioP1;P1;durP2;ratioP2;P2;SDS_P1;SDS_P2;PMS_P1;PMS_P2;Temp;Humidity;BMP_temperature;BMP_pressure;BME280_temperature;BME280_humidity;BME280_pressure;Samples;Min_cycle;Max_cycle;Signal;HPM_P1;HPM_P2
2023/05/23 00:01:53;;;;;;;8.93;8.23;;;14.40;99.90;;;;;;5043081;28;20469;-77
2023/05/23 00:04:20;;;;;;;8.37;7.60;;;14.30;99.90;;;;;;5037885;28;20508;-77
2023/05/23 00:06:49;;;;;;;9.20;8.40;;;14.20;99.90;;;;;;5042912;28;20453;-77
2023/05/23 00:09:16;;;;;;;9.50;8.73;;;14.20;99.90;;;;;;5035466;28;20454;-77
2023/05/23 00:11:45;;;;;;;9.00;7.87;;;14.10;99.90;;;;;;5038022;28;20979;-77
2023/05/23 00:14:13;;;;;;;10.57;9.70;;;14.10;99.90;;;;;;5031610;28;20446;-77
2023/05/23 00:16:41;;;;;;;9.23;8.40;;;14.10;99.90;;;;;;5039202;28;20457;-78
2023/05/23 00:19:10;;;;;;;9.63;8.83;;;14.10;99.90;;;;;;5037508;28;21107;-76
2023/05/23 00:21:36;;;;;;;10.33;9.53;;;14.10;99.90;;;;;;5042934;28;20539;-78
2023/05/23 00:24:04;;;;;;;9.40;8.50;;;14.00;99.90;;;;;;5040655;28;20472;-77
2023/05/23 00:26:32;;;;;;;9.27;8.33;;;14.00;99.90;;;;;;5033787;28;20480;-77
2023/05/23 00:29:00;;;;;;;9.27;8.37;;;13.90;99.90;;;;;;5032204;28;20462;-77
2023/05/23 00:31:27;;;;;;;8.53;7.83;;;13.90;99.90;;;;;;5031037;28;20439;-77
2023/05/23 00:33:54;;;;;;;8.20;7.47;;;13.90;99.90;;;;;;5039317;28;21044;-77
2023/05/23 00:36:23;;;;;;;9.17;8.43;;;13.90;99.90;;;;;;5041970;28;20470;-77
2023/05/23 00:38:50;;;;;;;9.27;8.37;;;13.90;99.90;;;;;;5037049;28;20467;-77
2023/05/23 00:41:18;;;;;;;7.93;7.23;;;13.80;99.90;;;;;;5044276;28;20969;-77
2023/05/23 00:43:45;;;;;;;8.87;8.17;;;13.80;99.90;;;;;;5035636;28;20492;-77
2023/05/23 00:46:15;;;;;;;9.73;8.73;;;13.70;99.90;;;;;;5043109;28;20460;-77
2023/05/23 00:48:41;;;;;;;10.57;9.57;;;13.70;99.90;;;;;;5043683;28;20507;-77
2023/05/23 00:51:08;;;;;;;9.37;8.57;;;13.70;99.90;;;;;;5044449;28;20453;-77
2023/05/23 00:53:36;;;;;;;8.40;7.70;;;13.80;99.90;;;;;;5043257;28;20562;-77
2023/05/23 00:56:03;;;;;;;9.10;8.30;;;13.80;99.90;;;;;;5048036;28;20530;-77
2023/05/23 00:58:30;;;;;;;8.60;7.90;;;13.80;99.90;;;;;;5045132;28;20906;-78
2023/05/23 01:00:58;;;;;;;8.70;7.90;;;13.70;99.90;;;;;;5046836;28;20522;-78
2023/05/23 01:03:27;;;;;;;8.73;8.03;;;13.70;99.90;;;;;;5035812;28;20453;-77
2023/05/23 01:05:54;;;;;;;9.30;8.40;;;13.60;99.90;;;;;;5038414;28;20472;-78
2023/05/23 01:08:21;;;;;;;10.13;9.17;;;13.60;99.90;;;;;;5045265;28;20449;-78
2023/05/23 01:10:49;;;;;;;9.90;9.00;;;13.60;99.90;;;;;;5042458;28;20446;-78
2023/05/23 01:13:24;;;;;;;9.50;8.53;;;13.70;99.90;;;;;;5043828;28;20517;-78
2023/05/23 01:15:58;;;;;;;9.80;9.00;;;13.70;99.90;;;;;;5042831;28;20443;-78
2023/05/23 01:18:33;;;;;;;8.73;7.93;;;13.70;99.90;;;;;;5039761;28;20936;-77
2023/05/23 01:21:06;;;;;;;12.30;8.43;;;13.80;99.90;;;;;;5045507;28;20570;-78
2023/05/23 01:24:03;;;;;;;9.27;8.57;;;13.80;99.90;;;;;;5044309;28;20453;-78
2023/05/23 01:26:48;;;;;;;9.40;8.57;;;13.70;99.90;;;;;;5032549;28;20836;-77
2023/05/23 01:29:22;;;;;;;8.90;8.10;;;13.70;99.90;;;;;;5041705;28;20544;-78
2023/05/23 01:31:53;;;;;;;9.33;8.63;;;13.70;99.90;;;;;;5036408;28;20470;-78
2023/05/23 01:34:21;;;;;;;12.10;9.53;;;13.60;99.90;;;;;;5046149;28;20480;-77
2023/05/23 01:36:53;;;;;;;8.30;7.70;;;13.60;99.90;;;;;;5044410;28;20533;-77
2023/05/23 01:39:20;;;;;;;10.07;9.17;;;13.60;99.90;;;;;;5045775;28;20506;-77
2023/05/23 01:41:48;;;;;;;7.73;7.13;;;13.60;99.90;;;;;;5043891;28;20999;-77
2023/05/23 01:44:17;;;;;;;10.17;9.13;;;13.70;99.90;;;;;;5047538;28;20496;-77
2023/05/23 01:46:46;;;;;;;9.27;8.23;;;13.70;99.90;;;;;;5045343;28;20485;-77
2023/05/23 01:49:15;;;;;;;10.40;8.20;;;13.80;99.90;;;;;;5046558;28;20476;-77
2023/05/23 01:51:42;;;;;;;8.03;7.33;;;13.80;99.90;;;;;;5046308;28;20473;-76
2023/05/23 01:54:09;;;;;;;7.03;6.43;;;13.80;99.90;;;;;;5038093;28;20477;-77
2023/05/23 01:56:36;;;;;;;7.43;6.73;;;13.70;99.90;;;;;;5041732;28;20503;-76
2023/05/23 01:59:03;;;;;;;7.90;7.10;;;13.60;99.90;;;;;;5043741;28;20925;-76
2023/05/23 02:01:33;;;;;;;7.83;6.60;;;13.70;99.90;;;;;;5046692;28;20466;-76
2023/05/23 02:04:00;;;;;;;7.43;6.23;;;13.60;99.90;;;;;;5036681;28;20504;-77
2023/05/23 02:06:27;;;;;;;8.03;7.20;;;13.60;99.90;;;;;;5038499;28;20466;-76
2023/05/23 02:08:54;;;;;;;7.43;6.73;;;13.60;99.90;;;;;;5036735;28;20547;-76
2023/05/23 02:11:21;;;;;;;7.47;6.70;;;13.50;99.90;;;;;;5038174;28;20488;-77
2023/05/23 02:13:48;;;;;;;6.97;6.37;;;13.40;99.90;;;;;;5047220;28;20584;-77
2023/05/23 02:16:15;;;;;;;8.20;7.13;;;13.40;99.90;;;;;;5042622;28;20566;-77
2023/05/23 02:18:45;;;;;;;7.13;6.53;;;13.30;99.90;;;;;;5044493;28;20540;-77
2023/05/23 02:21:12;;;;;;;6.77;6.27;;;13.40;99.90;;;;;;5036948;28;20445;-77
2023/05/23 02:23:38;;;;;;;6.63;6.03;;;13.30;99.90;;;;;;5038885;28;20442;-77
2023/05/23 02:26:05;;;;;;;7.07;6.47;;;13.30;99.90;;;;;;5041671;28;21247;-76
2023/05/23 02:28:32;;;;;;;7.60;6.87;;;13.20;99.90;;;;;;5031087;28;20462;-76
2023/05/23 02:30:59;;;;;;;6.97;6.37;;;13.20;99.90;;;;;;5035963;28;21087;-76
2023/05/23 02:33:26;;;;;;;7.27;6.60;;;13.20;99.90;;;;;;5037151;28;20552;-76
2023/05/23 02:35:55;;;;;;;7.17;6.67;;;13.30;99.90;;;;;;5044780;28;20453;-76
2023/05/23 02:38:22;;;;;;;7.50;6.80;;;13.20;99.90;;;;;;5038766;28;20956;-76
2023/05/23 02:40:49;;;;;;;7.40;6.50;;;13.10;99.90;;;;;;5041211;28;20465;-76
2023/05/23 02:43:16;;;;;;;6.67;6.07;;;13.00;99.90;;;;;;5045746;28;20503;-76
2023/05/23 02:45:43;;;;;;;7.77;7.07;;;13.00;99.90;;;;;;5031616;28;20543;-76
2023/05/23 02:48:10;;;;;;;7.80;7.00;;;13.00;99.90;;;;;;5033466;28;20484;-76
2023/05/23 02:50:37;;;;;;;8.00;7.20;;;13.00;99.90;;;;;;5045688;28;20445;-76
2023/05/23 02:53:06;;;;;;;8.20;7.50;;;13.00;99.90;;;;;;5040442;28;20582;-76
2023/05/23 02:55:33;;;;;;;8.30;6.80;;;13.00;99.90;;;;;;5035983;28;20543;-76
2023/05/23 02:57:59;;;;;;;8.33;7.57;;;12.90;99.90;;;;;;5041580;28;20449;-76
2023/05/23 03:00:28;;;;;;;7.10;6.43;;;12.90;99.90;;;;;;5037923;28;21162;-76
2023/05/23 03:02:56;;;;;;;8.97;7.97;;;13.00;99.90;;;;;;5038078;28;20506;-76
2023/05/23 03:05:23;;;;;;;7.57;6.83;;;13.00;99.90;;;;;;5039981;28;20540;-76
2023/05/23 03:07:50;;;;;;;10.83;6.50;;;12.90;99.90;;;;;;5042115;28;20465;-76
2023/05/23 03:10:19;;;;;;;7.57;6.87;;;12.90;99.90;;;;;;5044630;28;20464;-76
2023/05/23 03:12:46;;;;;;;6.40;5.97;;;12.80;99.90;;;;;;5043601;28;20570;-76
2023/05/23 03:15:13;;;;;;;6.63;6.00;;;12.90;99.90;;;;;;5038498;28;20462;-76
2023/05/23 03:17:40;;;;;;;6.50;5.90;;;12.80;99.90;;;;;;5042715;28;20517;-76
2023/05/23 03:20:08;;;;;;;5.67;5.10;;;12.80;99.90;;;;;;5038462;28;20550;-76
2023/05/23 03:22:35;;;;;;;7.30;6.70;;;12.80;99.90;;;;;;5036201;28;20437;-76
2023/05/23 03:25:03;;;;;;;5.90;5.40;;;12.80;99.90;;;;;;5040259;28;20460;-76
2023/05/23 03:27:31;;;;;;;5.87;5.40;;;12.70;99.90;;;;;;5032561;28;20453;-76
2023/05/23 03:29:58;;;;;;;6.77;6.17;;;12.80;99.90;;;;;;5044211;28;20461;-76
2023/05/23 03:32:25;;;;;;;8.13;6.80;;;12.90;99.90;;;;;;5044305;28;20460;-76
2023/05/23 03:34:52;;;;;;;5.57;5.17;;;13.10;99.90;;;;;;5042228;28;20478;-76
2023/05/23 03:37:19;;;;;;;9.90;7.00;;;13.20;99.90;;;;;;5037337;28;20875;-77
2023/05/23 03:39:46;;;;;;;6.30;5.70;;;13.20;99.90;;;;;;5034922;28;20446;-76
2023/05/23 03:42:13;;;;;;;8.83;6.90;;;13.30;99.90;;;;;;5033095;28;20450;-76
2023/05/23 03:44:42;;;;;;;7.37;6.77;;;13.40;99.90;;;;;;5037082;28;20553;-77
2023/05/23 03:47:09;;;;;;;6.63;6.17;;;13.50;99.90;;;;;;5038474;28;20965;-76
2023/05/23 03:49:36;;;;;;;7.37;6.27;;;13.40;99.90;;;;;;5042991;28;20970;-76
2023/05/23 03:52:03;;;;;;;7.33;5.90;;;13.30;99.90;;;;;;5026575;28;20449;-77
2023/05/23 03:54:30;;;;;;;6.70;6.10;;;13.30;99.90;;;;;;5044141;28;20481;-76
2023/05/23 03:56:56;;;;;;;9.60;7.60;;;13.30;99.90;;;;;;5038025;28;20504;-77
2023/05/23 03:59:23;;;;;;;6.17;5.67;;;13.40;99.90;;;;;;5044317;28;20524;-78
2023/05/23 04:01:52;;;;;;;8.07;7.40;;;13.50;99.90;;;;;;5043516;28;20532;-77
2023/05/23 04:04:19;;;;;;;7.20;6.47;;;13.50;99.90;;;;;;5043948;28;20441;-78
2023/05/23 04:06:47;;;;;;;6.70;5.60;;;13.60;99.90;;;;;;5030918;28;20445;-77
2023/05/23 04:09:14;;;;;;;6.53;6.00;;;13.60;99.90;;;;;;5042017;28;20552;-77
2023/05/23 04:11:41;;;;;;;6.13;5.50;;;13.80;99.90;;;;;;5038376;28;20449;-77
2023/05/23 04:14:08;;;;;;;6.33;5.73;;;13.70;99.90;;;;;;5027904;28;20485;-77
2023/05/23 04:16:37;;;;;;;10.57;9.53;;;13.80;99.90;;;;;;5045273;28;20535;-77
2023/05/23 04:19:05;;;;;;;9.03;8.27;;;14.00;99.90;;;;;;5041859;28;21090;-78
2023/05/23 04:21:32;;;;;;;6.90;6.40;;;14.10;99.90;;;;;;5036798;28;20901;-77
2023/05/23 04:23:59;;;;;;;7.80;7.13;;;14.20;99.90;;;;;;5037165;28;20457;-77
2023/05/23 04:26:26;;;;;;;7.20;6.60;;;14.20;99.90;;;;;;5039872;28;20457;-77
2023/05/23 04:28:53;;;;;;;9.13;7.00;;;14.30;99.90;;;;;;5034339;28;20464;-78
2023/05/23 04:31:21;;;;;;;7.00;6.10;;;14.40;99.90;;;;;;5046918;28;20457;-77
2023/05/23 04:33:48;;;;;;;7.27;6.67;;;14.60;99.90;;;;;;5048216;28;21046;-77
2023/05/23 04:36:17;;;;;;;6.10;5.60;;;14.90;99.90;;;;;;5043468;28;20526;-77
2023/05/23 04:38:43;;;;;;;6.43;5.60;;;15.10;99.90;;;;;;5043689;28;20477;-77
2023/05/23 04:41:10;;;;;;;6.83;6.27;;;15.30;99.90;;;;;;5044634;28;20473;-77
2023/05/23 04:43:41;;;;;;;7.30;6.50;;;15.50;99.90;;;;;;5036636;28;20512;-77
2023/05/23 04:46:09;;;;;;;5.33;4.83;;;15.70;99.90;;;;;;5045014;28;20488;-77
2023/05/23 04:48:37;;;;;;;6.20;5.60;;;15.90;99.90;;;;;;5036115;28;20461;-77
2023/05/23 04:51:06;;;;;;;6.73;6.23;;;16.20;99.90;;;;;;5043539;28;20449;-78
2023/05/23 04:53:35;;;;;;;6.07;5.57;;;16.40;99.90;;;;;;5041085;28;20576;-77
2023/05/23 04:56:02;;;;;;;6.70;6.00;;;16.70;99.90;;;;;;5045871;28;20442;-77
2023/05/23 04:58:30;;;;;;;5.57;5.17;;;16.90;99.90;;;;;;5046818;28;20484;-77
2023/05/23 05:00:57;;;;;;;5.50;5.00;;;17.00;99.90;;;;;;5042155;28;20467;-78
2023/05/23 05:03:25;;;;;;;6.80;6.30;;;17.10;99.90;;;;;;5034754;28;20454;-78
2023/05/23 05:05:52;;;;;;;5.60;5.20;;;17.40;99.90;;;;;;5036285;28;21424;-80
2023/05/23 05:08:19;;;;;;;6.30;5.80;;;17.70;99.90;;;;;;5044215;28;20454;-77
2023/05/23 05:10:48;;;;;;;6.30;5.80;;;17.80;99.90;;;;;;5041897;28;20521;-77
2023/05/23 05:13:15;;;;;;;6.13;5.63;;;17.70;99.90;;;;;;5035472;28;20468;-77
2023/05/23 05:15:42;;;;;;;4.87;4.47;;;17.70;99.90;;;;;;5043856;28;20460;-77
2023/05/23 05:18:10;;;;;;;6.23;5.73;;;17.40;99.90;;;;;;5044206;28;20880;-77
2023/05/23 05:20:37;;;;;;;7.60;5.67;;;17.30;99.90;;;;;;5046607;28;20473;-78
2023/05/23 05:23:04;;;;;;;5.73;5.23;;;17.30;99.90;;;;;;5045447;28;20825;-78
2023/05/23 05:25:33;;;;;;;7.13;6.07;;;17.10;99.90;;;;;;5034515;28;20547;-78
2023/05/23 05:28:04;;;;;;;6.07;5.47;;;17.10;99.90;;;;;;5037221;28;20471;-77
2023/05/23 05:30:32;;;;;;;7.03;5.40;;;17.20;99.90;;;;;;5033893;28;20444;-78
2023/05/23 05:33:00;;;;;;;6.57;6.00;;;17.20;99.90;;;;;;5039914;28;20806;-77
2023/05/23 05:35:28;;;;;;;6.57;5.40;;;17.50;99.90;;;;;;5036256;28;20491;-77
2023/05/23 05:37:55;;;;;;;5.83;5.40;;;17.60;99.90;;;;;;5031747;28;20456;-77
2023/05/23 05:40:22;;;;;;;7.67;6.97;;;17.80;99.90;;;;;;5038468;28;20555;-78
2023/05/23 05:42:49;;;;;;;6.80;6.40;;;17.90;99.90;;;;;;5028915;28;20512;-77
2023/05/23 05:45:17;;;;;;;7.40;6.70;;;18.20;99.90;;;;;;5038952;28;20485;-77
2023/05/23 05:47:44;;;;;;;8.17;7.57;;;18.40;99.90;;;;;;5034215;28;20433;-77
2023/05/23 05:50:12;;;;;;;7.90;7.20;;;18.70;99.90;;;;;;5038140;28;20977;-77
2023/05/23 05:52:39;;;;;;;7.10;6.60;;;18.80;99.90;;;;;;5037249;28;20463;-77
2023/05/23 05:55:10;;;;;;;6.80;6.17;;;19.10;99.90;;;;;;5030208;28;20488;-77
2023/05/23 05:57:38;;;;;;;7.63;6.93;;;19.20;99.90;;;;;;5044635;28;20928;-77
2023/05/23 06:00:11;;;;;;;7.40;6.90;;;19.20;99.90;;;;;;5041424;28;21509;-78
2023/05/23 06:02:39;;;;;;;8.27;7.50;;;19.30;99.90;;;;;;5035839;28;20887;-78
2023/05/23 06:05:08;;;;;;;8.60;7.83;;;19.50;99.90;;;;;;5041503;28;20594;-77
2023/05/23 06:07:35;;;;;;;8.63;7.90;;;19.70;99.90;;;;;;5035557;28;21113;-77
2023/05/23 06:10:03;;;;;;;8.20;7.60;;;19.90;99.90;;;;;;5042964;28;20503;-77
2023/05/23 06:12:30;;;;;;;8.57;7.67;;;20.10;99.90;;;;;;5031892;28;20653;-78
2023/05/23 06:14:57;;;;;;;8.40;7.70;;;19.80;99.90;;;;;;5033713;28;20480;-78
2023/05/23 06:17:24;;;;;;;8.73;7.90;;;19.70;99.90;;;;;;5041124;28;20570;-77
2023/05/23 06:19:52;;;;;;;8.73;8.03;;;19.70;99.90;;;;;;5043005;28;20479;-77
2023/05/23 06:22:19;;;;;;;10.27;9.27;;;19.70;99.90;;;;;;5046548;28;20511;-78
2023/05/23 06:24:46;;;;;;;9.27;8.30;;;19.70;99.90;;;;;;5046954;28;20499;-77
2023/05/23 06:27:13;;;;;;;7.27;6.70;;;19.60;99.90;;;;;;5046570;28;20508;-77
2023/05/23 06:29:40;;;;;;;10.40;8.50;;;19.80;99.90;;;;;;5044915;28;20477;-78
2023/05/23 06:32:07;;;;;;;8.17;7.47;;;19.60;99.90;;;;;;5043900;28;20441;-77
2023/05/23 06:34:34;;;;;;;9.43;8.50;;;19.50;99.90;;;;;;5041951;28;20480;-77
2023/05/23 06:37:03;;;;;;;8.83;8.17;;;19.50;99.90;;;;;;5045628;28;20468;-77
2023/05/23 06:39:30;;;;;;;9.23;8.53;;;19.60;99.90;;;;;;5047221;28;21001;-78
2023/05/23 06:41:57;;;;;;;10.03;9.20;;;19.70;99.90;;;;;;5047861;28;20526;-79
2023/05/23 06:44:24;;;;;;;12.27;9.97;;;19.70;99.90;;;;;;5045626;28;20596;-77
2023/05/23 06:46:56;;;;;;;9.40;8.70;;;19.70;99.90;;;;;;5039891;28;21014;-80
2023/05/23 06:49:23;;;;;;;9.77;8.87;;;19.80;99.90;;;;;;5045123;28;20903;-79
2023/05/23 06:51:50;;;;;;;9.20;8.50;;;19.80;99.90;;;;;;5037796;28;20500;-78
2023/05/23 06:54:18;;;;;;;11.00;10.00;;;19.90;99.90;;;;;;5035625;28;20479;-78
2023/05/23 06:56:46;;;;;;;10.13;9.30;;;19.90;99.90;;;;;;5028540;28;20504;-78
2023/05/23 06:59:13;;;;;;;10.07;9.37;;;20.10;99.90;;;;;;5035892;28;20452;-78
2023/05/23 07:01:40;;;;;;;11.37;9.37;;;20.20;99.90;;;;;;5038938;28;20526;-78
2023/05/23 07:04:06;;;;;;;10.70;9.77;;;20.30;99.90;;;;;;5033945;28;20449;-79
2023/05/23 07:06:35;;;;;;;10.00;9.10;;;20.60;99.90;;;;;;5028316;28;20515;-78
2023/05/23 07:09:02;;;;;;;9.80;8.97;;;21.10;99.90;;;;;;5035158;28;20457;-77
2023/05/23 07:11:31;;;;;;;13.33;10.77;;;20.90;99.90;;;;;;5035528;28;20545;-78
2023/05/23 07:13:58;;;;;;;9.33;8.63;;;20.80;99.90;;;;;;5039553;28;20477;-77
2023/05/23 07:16:25;;;;;;;10.07;9.27;;;20.80;99.90;;;;;;5044043;28;20593;-77
2023/05/23 07:18:52;;;;;;;11.50;10.50;;;21.00;99.90;;;;;;5045350;28;20514;-78
2023/05/23 07:21:20;;;;;;;14.37;11.10;;;21.30;99.90;;;;;;5045056;28;20465;-78
2023/05/23 07:23:46;;;;;;;9.03;8.33;;;21.10;99.90;;;;;;5046037;28;20503;-77
2023/05/23 07:26:13;;;;;;;10.00;9.07;;;20.90;99.90;;;;;;5045595;28;20511;-78
2023/05/23 07:28:42;;;;;;;12.63;11.40;;;20.70;99.90;;;;;;5042621;28;20522;-78
2023/05/23 07:31:09;;;;;;;10.57;9.60;;;20.70;99.90;;;;;;5045080;28;20444;-78
2023/05/23 07:33:36;;;;;;;10.63;9.60;;;20.60;99.90;;;;;;5045539;28;20928;-79
2023/05/23 07:36:03;;;;;;;12.10;11.10;;;20.50;99.90;;;;;;5045891;28;20526;-78
2023/05/23 07:38:29;;;;;;;11.20;10.10;;;20.50;99.90;;;;;;5046003;28;20446;-78
2023/05/23 07:40:56;;;;;;;10.97;10.13;;;20.80;99.90;;;;;;5044225;28;20501;-78
2023/05/23 07:43:23;;;;;;;10.80;10.00;;;20.90;99.90;;;;;;5046378;28;20502;-78
2023/05/23 07:45:52;;;;;;;12.13;10.90;;;20.80;99.90;;;;;;5046228;28;20721;-78
2023/05/23 07:48:19;;;;;;;12.50;11.37;;;20.50;99.90;;;;;;5045816;28;20457;-78
2023/05/23 07:50:46;;;;;;;13.00;11.90;;;20.10;99.90;;;;;;5046602;28;20447;-77
2023/05/23 07:53:13;;;;;;;13.83;12.57;;;19.70;99.90;;;;;;5045328;28;20555;-78
2023/05/23 07:55:40;;;;;;;15.07;13.87;;;19.20;99.90;;;;;;5046140;28;20481;-77
2023/05/23 07:58:07;;;;;;;16.13;14.70;;;18.30;99.90;;;;;;5046469;28;20460;-77
2023/05/23 08:00:35;;;;;;;16.37;14.70;;;17.90;99.90;;;;;;5044947;28;20509;-78
2023/05/23 08:03:04;;;;;;;16.57;15.00;;;17.50;99.90;;;;;;5046425;28;20552;-78
2023/05/23 08:05:31;;;;;;;17.60;16.03;;;17.30;99.90;;;;;;5047210;28;20511;-78
2023/05/23 08:07:58;;;;;;;16.53;14.97;;;17.10;99.90;;;;;;5033073;28;20443;-77
2023/05/23 08:10:27;;;;;;;17.40;15.90;;;17.00;99.90;;;;;;5039062;28;20471;-77
2023/05/23 08:12:54;;;;;;;16.80;15.17;;;17.10;99.90;;;;;;5030265;28;20469;-79
2023/05/23 08:15:22;;;;;;;17.80;14.83;;;17.00;99.90;;;;;;5039861;28;20513;-77
2023/05/23 08:17:49;;;;;;;18.70;17.00;;;17.10;99.90;;;;;;5047917;28;20985;-77
2023/05/23 08:20:18;;;;;;;17.40;15.90;;;17.20;99.90;;;;;;5050092;28;20461;-77
2023/05/23 08:22:45;;;;;;;17.60;15.90;;;17.30;99.90;;;;;;5048623;28;20999;-78
2023/05/23 08:25:12;;;;;;;17.60;16.17;;;17.30;99.90;;;;;;5049222;28;20457;-77
2023/05/23 08:27:39;;;;;;;19.73;16.90;;;17.60;99.90;;;;;;5047591;28;20671;-77
2023/05/23 08:30:08;;;;;;;17.07;15.47;;;17.60;99.90;;;;;;5043643;28;20454;-77
2023/05/23 08:32:35;;;;;;;19.33;17.73;;;17.90;99.90;;;;;;5048641;28;20467;-77
2023/05/23 08:35:02;;;;;;;17.07;15.53;;;18.20;99.90;;;;;;5049274;28;20559;-77
2023/05/23 08:37:30;;;;;;;18.50;16.90;;;18.40;99.90;;;;;;5049159;28;20450;-78
2023/05/23 08:39:57;;;;;;;18.37;16.97;;;18.70;99.90;;;;;;5044696;28;20517;-77
2023/05/23 08:42:24;;;;;;;17.03;15.53;;;19.10;99.90;;;;;;5050283;28;20511;-78
2023/05/23 08:44:52;;;;;;;17.27;15.77;;;19.30;99.90;;;;;;5048304;28;20484;-77
2023/05/23 08:47:20;;;;;;;17.13;15.40;;;19.70;99.90;;;;;;5048844;28;20524;-77
2023/05/23 08:49:48;;;;;;;16.07;14.70;;;20.20;99.90;;;;;;5050184;28;20465;-78
2023/05/23 08:52:18;;;;;;;17.00;15.40;;;20.70;99.90;;;;;;5048518;28;20449;-77
2023/05/23 08:54:46;;;;;;;15.33;13.93;;;20.90;99.90;;;;;;5047655;28;21071;-78
2023/05/23 08:57:13;;;;;;;15.37;13.97;;;21.10;99.90;;;;;;5048850;28;20449;-78
2023/05/23 08:59:41;;;;;;;14.57;13.37;;;21.50;99.90;;;;;;5049624;28;20449;-77
2023/05/23 09:02:10;;;;;;;15.20;14.00;;;21.80;99.90;;;;;;5046343;28;20469;-78
2023/05/23 09:04:37;;;;;;;12.70;11.70;;;22.00;99.90;;;;;;5042418;28;20441;-78
2023/05/23 09:07:05;;;;;;;13.63;12.57;;;22.10;99.90;;;;;;5041331;28;20575;-78
2023/05/23 09:09:32;;;;;;;14.20;13.00;;;22.40;99.90;;;;;;5048347;28;20449;-77
2023/05/23 09:12:02;;;;;;;13.67;12.53;;;22.70;99.90;;;;;;5049507;28;20449;-78
2023/05/23 09:14:30;;;;;;;13.90;12.70;;;22.50;99.90;;;;;;5044932;28;20468;-78
2023/05/23 09:17:01;;;;;;;15.20;13.70;;;23.10;99.90;;;;;;5047812;28;20970;-78
2023/05/23 09:19:29;;;;;;;14.07;12.90;;;23.30;99.90;;;;;;5047385;28;20447;-77
2023/05/23 09:21:56;;;;;;;12.70;11.70;;;23.40;99.90;;;;;;5047664;28;20987;-77
2023/05/23 09:24:23;;;;;;;12.67;11.30;;;23.40;99.90;;;;;;5048294;28;20481;-77
2023/05/23 09:26:50;;;;;;;11.97;11.07;;;23.30;99.90;;;;;;5047773;28;20477;-77
2023/05/23 09:29:21;;;;;;;11.13;10.23;;;23.30;99.90;;;;;;5049014;28;20543;-77
2023/05/23 09:31:48;;;;;;;9.87;9.17;;;23.30;99.90;;;;;;5049082;28;20441;-76
2023/05/23 09:34:15;;;;;;;10.93;10.00;;;23.50;99.90;;;;;;5045695;28;20542;-77
2023/05/23 09:36:43;;;;;;;10.83;9.93;;;23.30;99.90;;;;;;5048529;28;21038;-77
2023/05/23 09:39:12;;;;;;;11.10;10.20;;;23.60;99.90;;;;;;5048155;28;20452;-77
2023/05/23 09:41:39;;;;;;;14.40;10.37;;;23.50;99.90;;;;;;5046935;28;21151;-77
2023/05/23 09:44:08;;;;;;;10.77;9.87;;;23.40;99.90;;;;;;5048261;28;20817;-77
2023/05/23 09:46:38;;;;;;;10.70;9.80;;;23.50;99.90;;;;;;5049025;28;20461;-77
2023/05/23 09:49:17;;;;;;;12.03;11.03;;;23.50;99.90;;;;;;5048493;28;20460;-77
2023/05/23 09:51:43;;;;;;;12.07;11.00;;;23.40;99.90;;;;;;5045398;28;20567;-77
2023/05/23 09:54:10;;;;;;;10.47;9.67;;;23.60;99.90;;;;;;5048466;28;20602;-77
2023/05/23 09:56:42;;;;;;;10.93;9.93;;;23.60;99.90;;;;;;5048429;28;20508;-77
2023/05/23 09:59:13;;;;;;;12.80;11.70;;;23.80;99.90;;;;;;5047932;28;20457;-77
2023/05/23 10:01:44;;;;;;;13.77;12.47;;;23.90;99.90;;;;;;5046614;28;20560;-76
2023/05/23 10:04:13;;;;;;;16.10;14.70;;;24.10;99.90;;;;;;5048102;28;20481;-77
2023/05/23 10:06:45;;;;;;;16.47;15.00;;;23.90;99.90;;;;;;5045685;28;20495;-77
2023/05/23 10:09:16;;;;;;;14.97;13.67;;;24.10;99.90;;;;;;5040073;28;20856;-77
2023/05/23 10:12:20;;;;;;;17.07;15.67;;;24.10;99.90;;;;;;5047860;28;20453;-77
2023/05/23 10:14:54;;;;;;;14.93;13.43;;;24.00;99.90;;;;;;5037238;28;20438;-77
2023/05/23 10:17:30;;;;;;;11.83;10.83;;;24.20;99.90;;;;;;5044911;28;20465;-77
2023/05/23 10:20:01;;;;;;;11.43;10.47;;;24.30;99.90;;;;;;5045599;28;20521;-77
2023/05/23 10:22:28;;;;;;;12.20;11.07;;;24.30;99.90;;;;;;5046314;28;21221;-78
2023/05/23 10:24:55;;;;;;;11.70;10.70;;;24.40;99.90;;;;;;5041582;28;20498;-77
2023/05/23 10:27:23;;;;;;;12.80;11.80;;;24.60;99.90;;;;;;5045152;28;20557;-78
2023/05/23 10:29:50;;;;;;;12.33;11.30;;;24.60;99.90;;;;;;5037839;28;20491;-76
2023/05/23 10:32:18;;;;;;;13.80;12.47;;;25.00;99.90;;;;;;5044185;28;20480;-77
2023/05/23 10:34:57;;;;;;;13.00;11.80;;;25.20;99.90;;;;;;5046824;28;20494;-78
2023/05/23 10:37:29;;;;;;;11.70;10.60;;;25.30;99.90;;;;;;5047003;28;20472;-77
2023/05/23 10:40:02;;;;;;;9.47;8.77;;;24.90;99.90;;;;;;5045473;28;20538;-76
2023/05/23 10:42:40;;;;;;;10.60;9.70;;;24.40;99.90;;;;;;5047590;28;20790;-77
2023/05/23 10:45:17;;;;;;;10.20;9.17;;;24.60;99.90;;;;;;5045324;28;20487;-77
2023/05/23 10:47:46;;;;;;;10.13;9.27;;;25.20;99.90;;;;;;5046822;28;20575;-77
2023/05/23 10:50:15;;;;;;;9.40;8.67;;;24.50;98.30;;;;;;5042944;28;20477;-76
2023/05/23 10:52:43;;;;;;;8.67;7.87;;;24.20;99.90;;;;;;5041548;28;20459;-77
2023/05/23 10:55:16;;;;;;;9.83;8.93;;;24.40;99.00;;;;;;5046264;28;20489;-77
2023/05/23 10:57:44;;;;;;;11.73;10.73;;;24.40;98.40;;;;;;5046901;28;20486;-76
2023/05/23 11:00:16;;;;;;;11.13;10.20;;;24.40;99.00;;;;;;5044785;28;20458;-76
2023/05/23 11:02:55;;;;;;;13.90;10.60;;;24.20;98.90;;;;;;5047212;28;21150;-76
2023/05/23 11:05:27;;;;;;;10.23;9.40;;;24.10;99.90;;;;;;5044346;28;20473;-76
2023/05/23 11:08:20;;;;;;;10.00;9.07;;;24.00;99.40;;;;;;5047242;28;20587;-77
2023/05/23 11:10:59;;;;;;;9.80;9.00;;;24.30;99.90;;;;;;5035948;28;20461;-76
2023/05/23 11:13:46;;;;;;;9.70;8.97;;;24.30;99.50;;;;;;5045946;28;20452;-76
2023/05/23 11:16:26;;;;;;;9.17;8.37;;;24.50;99.00;;;;;;5042824;28;21000;-77
2023/05/23 11:18:58;;;;;;;8.07;7.37;;;24.60;99.90;;;;;;5046718;28;20531;-77
2023/05/23 11:21:29;;;;;;;10.00;9.07;;;24.40;97.50;;;;;;5040014;28;20563;-76
2023/05/23 11:23:55;;;;;;;10.27;9.37;;;24.20;97.90;;;;;;5039397;28;20589;-76
2023/05/23 11:26:32;;;;;;;11.17;10.27;;;24.30;99.00;;;;;;5046392;28;20526;-77
2023/05/23 11:29:02;;;;;;;10.83;9.83;;;24.60;99.90;;;;;;5045110;28;20486;-76
2023/05/23 11:31:29;;;;;;;10.50;9.60;;;24.60;97.80;;;;;;5046142;28;20450;-77
2023/05/23 11:33:56;;;;;;;9.70;8.80;;;24.70;99.90;;;;;;5046189;28;20487;-76
2023/05/23 11:36:23;;;;;;;10.47;9.50;;;25.00;99.30;;;;;;5046719;28;20506;-76
2023/05/23 11:38:52;;;;;;;10.30;9.30;;;24.70;97.80;;;;;;5045255;28;21036;-77
2023/05/23 11:41:20;;;;;;;10.10;9.10;;;24.90;99.90;;;;;;5046097;28;20442;-77
2023/05/23 11:43:50;;;;;;;9.97;9.17;;;25.00;99.90;;;;;;5045775;28;20478;-77
2023/05/23 11:46:17;;;;;;;11.17;10.27;;;25.30;99.80;;;;;;5044394;28;20461;-77
2023/05/23 11:48:45;;;;;;;10.47;9.57;;;25.00;98.40;;;;;;5044925;28;20490;-77
2023/05/23 11:51:12;;;;;;;11.23;10.33;;;24.20;97.80;;;;;;5044157;28;20463;-77
2023/05/23 11:53:39;;;;;;;10.43;9.50;;;24.20;98.90;;;;;;5046320;28;20860;-77
2023/05/23 11:56:08;;;;;;;11.77;10.77;;;24.20;99.60;;;;;;5043681;28;20488;-77
2023/05/23 11:58:37;;;;;;;10.83;9.97;;;23.90;99.90;;;;;;5034841;28;20430;-77
2023/05/23 12:01:05;;;;;;;10.13;9.20;;;23.60;99.90;;;;;;5037863;28;20470;-76
2023/05/23 12:03:32;;;;;;;8.23;7.47;;;23.30;99.90;;;;;;5031260;28;20991;-77
2023/05/23 12:05:59;;;;;;;8.57;7.77;;;23.30;99.70;;;;;;5030556;28;20536;-77
2023/05/23 12:08:26;;;;;;;8.70;8.00;;;23.30;98.70;;;;;;5026282;28;20447;-76
2023/05/23 12:10:56;;;;;;;8.57;7.77;;;23.00;99.90;;;;;;5035155;28;20528;-77
2023/05/23 12:13:26;;;;;;;8.33;7.63;;;22.90;99.90;;;;;;5026679;28;21138;-77
2023/05/23 12:15:57;;;;;;;10.13;9.27;;;23.10;99.90;;;;;;5040926;28;20481;-77
2023/05/23 12:18:25;;;;;;;8.33;7.53;;;22.90;99.90;;;;;;5045012;28;20460;-76
2023/05/23 12:20:52;;;;;;;9.77;8.97;;;22.90;99.90;;;;;;5044309;28;20566;-77
2023/05/23 12:23:20;;;;;;;8.53;7.83;;;23.30;99.90;;;;;;5045472;28;20538;-77
2023/05/23 12:25:51;;;;;;;9.83;8.70;;;23.60;99.90;;;;;;5041353;28;20524;-76
2023/05/23 12:28:19;;;;;;;9.93;9.00;;;23.40;99.90;;;;;;5044412;28;20871;-77
2023/05/23 12:30:48;;;;;;;11.20;6.30;;;23.60;99.90;;;;;;5044342;28;20470;-76
2023/05/23 12:33:18;;;;;;;6.90;6.20;;;22.40;98.00;;;;;;5039365;28;20480;-76
2023/05/23 12:35:45;;;;;;;9.10;8.40;;;20.80;99.90;;;;;;5042389;28;20534;-76
2023/05/23 12:38:16;;;;;;;8.87;8.07;;;19.50;99.90;;;;;;5039477;28;20480;-76
2023/05/23 12:40:43;;;;;;;8.67;7.87;;;19.00;99.90;;;;;;5032887;28;20475;-75
2023/05/23 12:43:10;;;;;;;8.93;8.20;;;18.70;99.90;;;;;;5038221;28;20485;-76
2023/05/23 12:45:37;;;;;;;10.77;9.87;;;18.50;99.90;;;;;;5037801;28;20574;-75
2023/05/23 12:48:07;;;;;;;12.67;11.47;;;18.40;99.90;;;;;;5042960;28;20526;-76